Time;durP1;ratioP1;P1;durP2;ratioP2;P2;SDS_P1;SDS_P2;PMS_P1;PMS_P2;Temp;Humidity;BMP_temperature;BMP_pressure;BME280_temperature;BME280_humidity;BME280_pressure;Samples;Min_cycle;Max_cycle;Signal;HPM_P1;HPM_P2
2021/12/20 00:01:50;;;;;;;;;24.50;19.25;;;;;7.92;72.03;102467.50;5034389;28;45264;-64
2021/12/20 00:04:16;;;;;;;;;26.25;19.75;;;;;7.94;72.08;102467.47;5046716;28;47884;-65
2021/12/20 00:06:42;;;;;;;;;35.75;22.75;;;;;7.94;72.03;102468.34;5031770;28;45490;-66
2021/12/20 00:09:08;;;;;;;;;32.00;26.75;;;;;7.96;72.18;102463.03;5035175;28;45396;-66
2021/12/20 00:11:33;;;;;;;;;32.25;23.75;;;;;7.94;72.40;102462.22;5032106;28;45430;-68
2021/12/20 00:13:59;;;;;;;;;30.00;24.00;;;;;7.96;71.97;102463.03;5032911;28;45773;-66
2021/12/20 00:16:24;;;;;;;;;31.50;25.75;;;;;7.98;72.09;102454.28;5032558;28;45312;-67
2021/12/20 00:18:51;;;;;;;;;33.25;25.25;;;;;8.02;71.97;102461.16;5033420;28;45417;-64
2021/12/20 00:21:16;;;;;;;;;28.75;23.00;;;;;8.03;72.17;102452.41;5028541;28;45509;-63
2021/12/20 00:23:42;;;;;;;;;35.75;29.75;;;;;8.06;72.41;102456.72;5035052;28;45678;-64
2021/12/20 00:26:09;;;;;;;;;35.25;25.50;;;;;8.07;72.04;102458.47;5030241;28;45400;-64
2021/12/20 00:28:35;;;;;;;;;28.75;22.00;;;;;8.07;71.99;102453.22;5031693;28;45248;-64
2021/12/20 00:31:00;;;;;;;;;26.25;20.75;;;;;8.07;72.12;102458.47;5032448;28;45488;-64
2021/12/20 00:33:28;;;;;;;;;26.25;21.25;;;;;8.04;72.20;102454.13;5034979;28;45882;-64
2021/12/20 00:35:54;;;;;;;;;22.25;18.75;;;;;8.03;71.92;102454.16;5028106;28;45407;-63
2021/12/20 00:41:04;;;;;;;;;31.25;21.00;;;;;8.04;71.91;102440.13;5031954;28;45376;-62
2021/12/20 00:43:29;;;;;;;;;25.75;21.25;;;;;8.07;71.93;102443.56;5032973;28;45986;-62
2021/12/20 00:45:55;;;;;;;;;31.25;24.75;;;;;8.10;71.72;102438.25;5033367;28;45345;-65
2021/12/20 00:48:21;;;;;;;;;24.00;20.50;;;;;8.07;71.72;102454.06;5031176;28;45273;-62
2021/12/20 00:50:47;;;;;;;;;24.00;20.75;;;;;8.03;71.98;102439.28;5033845;28;45371;-64
2021/12/20 00:53:14;;;;;;;;;29.00;25.75;;;;;8.00;71.76;102441.13;5024925;28;46538;-64
2021/12/20 00:55:40;;;;;;;;;25.50;21.50;;;;;8.00;72.07;102441.97;5028093;28;45371;-64
2021/12/20 00:58:06;;;;;;;;;23.00;22.00;;;;;8.01;71.75;102442.84;5024838;28;45473;-63
2021/12/20 01:00:45;;;;;;;;;25.25;18.75;;;;;8.02;72.16;102442.78;5025930;28;45490;-63
2021/12/20 01:03:12;;;;;;;;;21.00;19.50;;;;;8.03;72.07;102443.66;5028059;28;45283;-65
2021/12/20 01:05:39;;;;;;;;;34.75;22.00;;;;;8.04;72.18;102434.88;5034627;28;45270;-66
2021/12/20 01:08:07;;;;;;;;;34.00;22.25;;;;;8.08;72.23;102432.19;5029191;28;45381;-65
2021/12/20 01:10:33;;;;;;;;;23.25;21.50;;;;;8.10;71.81;102432.13;5031454;28;45714;-64
2021/12/20 01:13:02;;;;;;;;;22.00;16.50;;;;;8.11;71.95;102423.34;5032413;28;46268;-61
2021/12/20 01:15:35;;;;;;;;;30.50;20.75;;;;;8.08;71.59;102419.06;5032555;28;45362;-63
2021/12/20 01:18:04;;;;;;;;;22.75;19.00;;;;;8.09;71.83;102418.16;5027338;28;45374;-62
2021/12/20 01:20:33;;;;;;;;;24.50;21.50;;;;;8.10;71.96;102424.25;5031796;28;45534;-63
2021/12/20 01:22:59;;;;;;;;;26.50;20.00;;;;;8.12;71.82;102414.59;5027570;28;46140;-64
2021/12/20 01:25:25;;;;;;;;;28.75;25.75;;;;;8.11;71.53;102415.47;5032378;28;45452;-69
2021/12/20 01:27:51;;;;;;;;;18.50;17.00;;;;;8.11;71.76;102418.97;5032710;28;45382;-69
2021/12/20 01:30:21;;;;;;;;;23.50;18.00;;;;;8.08;71.87;102426.94;5031039;28;45383;-69
2021/12/20 01:32:47;;;;;;;;;16.25;14.00;;;;;8.06;71.52;102425.25;5032185;28;45431;-66
2021/12/20 01:35:14;;;;;;;;;27.00;23.75;;;;;8.03;71.77;102415.66;5032331;28;45536;-63
2021/12/20 01:37:40;;;;;;;;;28.25;22.75;;;;;7.98;71.58;102416.63;5030792;28;45445;-68
2021/12/20 01:40:08;;;;;;;;;20.75;16.50;;;;;7.92;71.49;102409.78;5032117;28;45427;-66
2021/12/20 01:42:35;;;;;;;;;27.00;21.25;;;;;7.94;71.40;102415.00;5032891;28;47377;-67
2021/12/20 01:45:01;;;;;;;;;21.25;21.00;;;;;7.97;71.58;102418.41;5033463;28;46394;-67
2021/12/20 01:47:32;;;;;;;;;27.50;23.00;;;;;8.00;71.39;102412.25;5030305;28;46663;-64
2021/12/20 01:50:04;;;;;;;;;27.25;22.50;;;;;7.98;71.21;102412.28;5027065;28;45510;-66
2021/12/20 01:52:39;;;;;;;;;33.25;25.75;;;;;7.99;71.24;102405.28;5019722;28;45570;-64
2021/12/20 01:55:09;;;;;;;;;26.00;22.00;;;;;8.01;71.31;102408.72;5027782;28;45499;-66
2021/12/20 01:57:35;;;;;;;;;30.50;21.25;;;;;8.01;71.36;102406.97;5032140;28;45309;-66
2021/12/20 02:00:03;;;;;;;;;34.25;24.25;;;;;8.00;71.44;102404.38;5047306;28;45319;-65
2021/12/20 02:02:29;;;;;;;;;34.75;27.25;;;;;7.97;71.16;102405.28;5033154;28;45489;-63
2021/12/20 02:05:01;;;;;;;;;22.25;21.50;;;;;7.98;71.43;102398.28;5021241;28;45578;-62
2021/12/20 02:07:48;;;;;;;;;33.25;28.00;;;;;8.00;71.47;102397.38;5025525;28;45869;-62
2021/12/20 02:10:14;;;;;;;;;28.50;25.75;;;;;8.02;71.21;102403.44;5025473;28;45553;-62
2021/12/20 02:12:39;;;;;;;;;36.25;29.50;;;;;8.05;71.53;102400.72;5028834;28;46000;-62
2021/12/20 02:15:05;;;;;;;;;33.25;28.75;;;;;8.09;71.52;102399.78;5028587;28;45568;-62
2021/12/20 02:17:31;;;;;;;;;36.25;30.75;;;;;8.07;70.92;102398.97;5027181;28;45521;-62
2021/12/20 02:20:00;;;;;;;;;38.50;31.00;;;;;8.04;70.98;102399.00;5030096;28;45621;-62
2021/12/20 02:22:26;;;;;;;;;34.00;30.50;;;;;8.03;71.04;102397.28;5030932;28;45322;-62
2021/12/20 02:24:51;;;;;;;;;39.75;32.75;;;;;8.03;71.30;102392.03;5030320;28;45310;-62
2021/12/20 02:27:17;;;;;;;;;39.50;31.50;;;;;8.05;71.21;102400.72;5032260;28;45650;-62
2021/12/20 02:30:01;;;;;;;;;38.25;34.50;;;;;8.07;70.97;102403.34;5029084;28;45339;-63
2021/12/20 02:37:55;;;;;;;;;40.75;31.25;;;;;8.10;71.09;102388.38;5032514;28;45359;-62
2021/12/20 02:40:22;;;;;;;;;35.00;27.75;;;;;8.09;71.15;102389.28;5031323;28;45475;-61
2021/12/20 02:42:49;;;;;;;;;44.00;37.25;;;;;8.09;71.11;102391.91;5030920;28;45481;-62
2021/12/20 02:45:16;;;;;;;;;46.50;35.50;;;;;8.11;70.83;102389.25;5032581;28;45498;-62
2021/12/20 02:47:45;;;;;;;;;39.75;34.25;;;;;8.13;70.73;102390.06;5033037;28;45425;-62
2021/12/20 02:50:12;;;;;;;;;40.00;34.25;;;;;8.13;71.08;102385.66;5030615;28;45486;-62
2021/12/20 02:52:39;;;;;;;;;46.50;32.50;;;;;8.13;70.79;102376.94;5028780;28;45975;-61
2021/12/20 02:55:06;;;;;;;;;32.50;30.00;;;;;8.12;70.49;102394.44;5032810;28;45485;-65
2021/12/20 02:57:35;;;;;;;;;39.75;34.50;;;;;8.08;70.49;102386.69;5033006;28;45490;-64
2021/12/20 03:00:03;;;;;;;;;40.00;27.00;;;;;8.04;70.72;102385.88;5029575;28;45179;-62
2021/12/20 03:02:28;;;;;;;;;50.25;37.50;;;;;8.03;71.12;102388.53;5031950;28;46072;-64
2021/12/20 03:04:54;;;;;;;;;51.50;36.25;;;;;8.02;70.94;102379.81;5044349;28;45538;-63
2021/12/20 03:07:24;;;;;;;;;42.25;33.75;;;;;8.06;70.88;102376.25;5033047;28;45311;-64
2021/12/20 03:09:55;;;;;;;;;38.75;31.25;;;;;8.04;70.70;102378.00;5034934;28;45576;-63
2021/12/20 03:12:23;;;;;;;;;43.75;37.50;;;;;8.06;70.58;102378.00;5031841;28;45501;-62
2021/12/20 03:14:51;;;;;;;;;46.50;33.50;;;;;8.01;70.77;102362.34;5032487;28;45292;-64
2021/12/20 03:17:17;;;;;;;;;45.00;32.25;;;;;8.01;70.93;102366.72;5031126;28;45322;-63
2021/12/20 03:19:42;;;;;;;;;37.00;34.50;;;;;8.04;70.75;102362.25;5029898;28;45415;-63
2021/12/20 03:22:08;;;;;;;;;42.25;30.75;;;;;8.06;70.91;102357.00;5032348;28;45397;-64
2021/12/20 03:24:34;;;;;;;;;46.00;36.25;;;;;8.07;70.71;102362.22;5030242;28;45433;-63
2021/12/20 03:26:59;;;;;;;;;36.25;32.50;;;;;8.07;70.70;102359.59;5030723;28;45271;-63
2021/12/20 03:29:25;;;;;;;;;34.50;28.50;;;;;8.02;70.33;102356.19;5033085;28;45355;-63
2021/12/20 03:31:50;;;;;;;;;38.25;34.25;;;;;8.00;70.71;102351.88;5031066;28;45464;-63
2021/12/20 03:34:17;;;;;;;;;46.50;34.00;;;;;7.97;70.54;102360.66;5028577;28;45320;-62
2021/12/20 03:36:42;;;;;;;;;38.50;31.75;;;;;7.97;70.45;102362.44;5028742;28;45533;-63
2021/12/20 03:39:09;;;;;;;;;36.00;30.75;;;;;7.98;70.92;102358.91;5032340;28;45390;-63
2021/12/20 03:41:36;;;;;;;;;40.75;31.00;;;;;8.01;70.57;102362.34;5031234;28;46080;-63
2021/12/20 03:44:03;;;;;;;;;37.50;32.25;;;;;7.98;70.24;102351.94;5032177;28;45315;-63
2021/12/20 03:46:28;;;;;;;;;32.00;30.00;;;;;7.97;70.63;102362.44;5029817;28;45533;-63
2021/12/20 03:48:54;;;;;;;;;31.75;27.50;;;;;7.94;70.25;102357.28;5026654;28;45439;-64
2021/12/20 03:51:19;;;;;;;;;52.50;30.50;;;;;7.90;70.46;102353.88;5031062;28;45804;-64
2021/12/20 03:53:45;;;;;;;;;37.25;33.00;;;;;7.91;70.72;102344.22;5032243;28;45460;-63
2021/12/20 03:56:11;;;;;;;;;37.50;34.75;;;;;7.98;70.53;102340.53;5029886;28;45497;-63
2021/12/20 03:58:36;;;;;;;;;36.50;26.50;;;;;7.98;70.38;102341.44;5030752;28;45669;-63
2021/12/20 04:01:12;;;;;;;;;47.00;32.00;;;;;8.01;70.48;102345.75;5030306;28;45492;-64
2021/12/20 04:03:40;;;;;;;;;53.50;34.25;;;;;8.01;70.41;102351.84;5031884;28;45142;-63
2021/12/20 04:06:08;;;;;;;;;52.75;41.75;;;;;8.01;70.47;102349.22;5032028;28;45357;-63
2021/12/20 04:08:35;;;;;;;;;43.75;35.75;;;;;8.01;70.38;102353.63;5031319;28;45454;-63
2021/12/20 04:11:00;;;;;;;;;46.50;37.00;;;;;8.04;70.44;102345.66;5028647;28;45524;-63
2021/12/20 04:13:27;;;;;;;;;32.50;28.50;;;;;8.03;70.29;102352.66;5030452;28;45505;-64
2021/12/20 04:15:56;;;;;;;;;40.25;30.75;;;;;8.04;70.15;102354.38;5031890;28;45403;-64
2021/12/20 04:18:23;;;;;;;;;45.25;32.00;;;;;8.04;70.20;102349.16;5028819;28;45401;-63
2021/12/20 04:20:49;;;;;;;;;42.00;30.25;;;;;8.03;70.09;102350.03;5030724;28;45394;-63
2021/12/20 04:23:14;;;;;;;;;36.50;31.00;;;;;8.02;70.07;102344.84;5030106;28;45363;-63
2021/12/20 04:25:40;;;;;;;;;34.25;27.75;;;;;8.02;70.21;102347.47;5027446;28;45403;-63
2021/12/20 04:28:06;;;;;;;;;36.25;30.75;;;;;8.03;70.21;102355.28;5030510;28;45475;-63
2021/12/20 04:30:33;;;;;;;;;33.75;28.75;;;;;8.06;70.06;102359.63;5027658;28;46118;-63
2021/12/20 04:32:59;;;;;;;;;19.75;18.25;;;;;8.04;70.04;102359.63;5030087;28;45333;-64
2021/12/20 04:35:25;;;;;;;;;32.00;27.50;;;;;7.99;69.90;102358.03;5029429;28;45400;-64
2021/12/20 04:37:51;;;;;;;;;43.75;28.00;;;;;7.98;70.28;102359.81;5029327;28;45656;-65
2021/12/20 04:40:20;;;;;;;;;32.75;25.00;;;;;7.96;69.95;102361.56;5031161;28;45452;-65
2021/12/20 04:42:47;;;;;;;;;31.50;28.75;;;;;7.91;70.09;102358.22;5030406;28;45412;-66
2021/12/20 04:45:12;;;;;;;;;36.75;26.50;;;;;7.89;69.94;102359.13;5031735;28;45489;-65
2021/12/20 04:47:39;;;;;;;;;33.75;30.75;;;;;7.88;70.04;102353.00;5030017;28;45523;-65
2021/12/20 04:50:06;;;;;;;;;26.00;20.75;;;;;7.89;70.14;102359.97;5028034;28;45391;-65
2021/12/20 04:52:31;;;;;;;;;27.75;23.00;;;;;7.86;69.68;102348.72;5029547;28;45258;-65
2021/12/20 04:54:56;;;;;;;;;33.75;29.00;;;;;7.82;69.70;102346.16;5032381;28;45335;-64
2021/12/20 04:57:22;;;;;;;;;28.50;22.00;;;;;7.79;69.87;102356.69;5029808;28;45486;-65
2021/12/20 04:59:47;;;;;;;;;33.50;27.25;;;;;7.74;69.63;102353.34;5029406;28;46259;-64
2021/12/20 05:02:13;;;;;;;;;31.75;25.50;;;;;7.70;69.91;102356.91;5029404;28;45386;-64
2021/12/20 05:04:38;;;;;;;;;29.00;19.25;;;;;7.70;69.72;102345.56;5030816;28;45311;-65
2021/12/20 05:07:04;;;;;;;;;29.50;24.25;;;;;7.70;70.37;102359.53;5030536;28;45296;-65
2021/12/20 05:09:36;;;;;;;;;33.00;23.75;;;;;7.72;70.24;102368.22;5030275;28;46333;-65
2021/12/20 05:12:11;;;;;;;;;30.00;20.25;;;;;7.73;69.82;102362.06;5026552;28;45244;-65
2021/12/20 05:14:42;;;;;;;;;33.75;24.75;;;;;7.72;69.70;102357.72;5029190;28;45212;-65
2021/12/20 05:17:09;;;;;;;;;23.50;16.25;;;;;7.69;69.99;102357.81;5031430;28;45308;-65
2021/12/20 05:19:35;;;;;;;;;30.25;24.25;;;;;7.68;69.76;102363.94;5029363;28;45998;-65
2021/12/20 05:22:01;;;;;;;;;27.25;24.25;;;;;7.69;70.18;102354.31;5030102;28;45757;-65
2021/12/20 05:24:26;;;;;;;;;29.00;23.25;;;;;7.72;70.08;102364.75;5028754;28;45246;-65
2021/12/20 05:26:52;;;;;;;;;36.50;29.75;;;;;7.76;69.71;102372.53;5028396;28;45370;-64
2021/12/20 05:29:17;;;;;;;;;34.75;25.00;;;;;7.71;69.70;102360.38;5030399;28;46522;-64
2021/12/20 05:31:43;;;;;;;;;31.50;22.50;;;;;7.71;69.97;102365.63;5030308;28;45320;-65
2021/12/20 05:34:09;;;;;;;;;29.75;28.25;;;;;7.72;69.77;102352.47;5028830;28;45389;-65
2021/12/20 05:36:34;;;;;;;;;32.25;26.75;;;;;7.73;69.98;102363.84;5028223;28;45349;-64
2021/12/20 05:39:01;;;;;;;;;30.25;23.25;;;;;7.74;69.77;102347.19;5030945;28;45336;-65
2021/12/20 05:41:27;;;;;;;;;26.25;23.50;;;;;7.76;69.77;102345.44;5030539;28;45536;-64
2021/12/20 05:43:52;;;;;;;;;30.25;21.75;;;;;7.75;69.52;102362.06;5029827;28;45462;-64
2021/12/20 05:46:18;;;;;;;;;38.50;26.75;;;;;7.72;69.81;102351.63;5029212;28;45522;-65
2021/12/20 05:48:43;;;;;;;;;35.75;26.25;;;;;7.75;69.65;102352.44;5028179;28;45499;-65
2021/12/20 05:51:09;;;;;;;;;30.75;25.50;;;;;7.76;70.09;102355.91;5029617;28;45618;-64
2021/12/20 05:53:34;;;;;;;;;32.75;25.50;;;;;7.77;70.05;102361.13;5030076;28;45545;-65
2021/12/20 05:56:00;;;;;;;;;33.25;23.75;;;;;7.76;69.53;102362.03;5019660;28;45167;-65
2021/12/20 05:58:26;;;;;;;;;28.50;23.50;;;;;7.73;69.73;102359.44;5022021;28;45220;-65
2021/12/20 06:00:52;;;;;;;;;38.50;26.00;;;;;7.76;69.79;102361.16;5018948;28;45862;-65
2021/12/20 06:03:17;;;;;;;;;36.50;29.50;;;;;7.75;69.86;102356.81;5013310;28;45261;-64
2021/12/20 06:05:43;;;;;;;;;34.00;26.00;;;;;7.72;69.73;102356.88;5016152;28;45326;-65
2021/12/20 06:08:09;;;;;;;;;34.50;25.00;;;;;7.71;70.13;102358.63;5011679;28;45429;-64
2021/12/20 06:10:36;;;;;;;;;35.50;30.00;;;;;7.70;69.97;102356.91;5004428;28;45301;-63
2021/12/20 06:13:05;;;;;;;;;40.25;26.50;;;;;7.70;70.12;102356.03;5006908;28;45406;-65
2021/12/20 06:15:31;;;;;;;;;30.50;26.25;;;;;7.73;69.94;102355.97;5005934;28;45209;-63
2021/12/20 06:17:56;;;;;;;;;31.50;26.75;;;;;7.73;70.08;102361.22;5004035;28;46153;-68
2021/12/20 06:20:22;;;;;;;;;35.00;24.50;;;;;7.76;69.94;102353.31;5004904;28;45337;-67
2021/12/20 06:22:48;;;;;;;;;29.00;26.00;;;;;7.81;69.92;102343.53;5012651;28;45340;-67
2021/12/20 06:25:14;;;;;;;;;34.50;28.75;;;;;7.84;69.59;102348.75;5012724;28;45475;-67
2021/12/20 06:27:40;;;;;;;;;30.75;24.75;;;;;7.83;69.85;102347.03;5003864;28;46089;-67
2021/12/20 06:30:11;;;;;;;;;34.75;25.50;;;;;7.83;69.65;102353.13;5007926;28;45280;-67
2021/12/20 06:32:41;;;;;;;;;39.00;34.75;;;;;7.84;69.85;102360.09;5024169;28;45452;-67
2021/12/20 06:35:07;;;;;;;;;38.50;31.75;;;;;7.88;69.76;102363.50;5004236;28;45600;-67
2021/12/20 06:37:33;;;;;;;;;35.50;28.75;;;;;7.89;69.65;102364.38;5004310;28;45444;-68
2021/12/20 06:39:59;;;;;;;;;30.25;22.00;;;;;7.91;69.42;102362.59;5003909;28;45357;-59
2021/12/20 06:42:25;;;;;;;;;30.75;26.00;;;;;7.92;69.46;102364.31;5004561;28;45221;-63
2021/12/20 06:44:51;;;;;;;;;31.50;25.50;;;;;7.92;69.54;102367.81;5004079;28;45332;-63
2021/12/20 06:47:19;;;;;;;;;28.50;24.75;;;;;7.91;69.65;102371.31;5004385;28;46186;-65
2021/12/20 06:49:45;;;;;;;;;35.50;27.75;;;;;7.93;69.54;102384.41;5003692;28;45314;-66
2021/12/20 06:52:11;;;;;;;;;25.25;22.75;;;;;7.90;69.53;102377.47;5004393;28;45325;-60
2021/12/20 06:54:36;;;;;;;;;27.75;23.75;;;;;7.91;69.49;102383.59;5021856;28;45464;-61
2021/12/20 06:57:03;;;;;;;;;28.75;25.00;;;;;7.88;69.48;102379.25;5020668;28;47058;-64
2021/12/20 06:59:28;;;;;;;;;33.75;27.00;;;;;7.89;69.34;102386.22;5022435;28;45274;-63
2021/12/20 07:01:54;;;;;;;;;29.00;24.50;;;;;7.90;69.16;102384.47;5022693;28;45264;-69
2021/12/20 07:04:19;;;;;;;;;31.75;22.00;;;;;7.92;69.11;102388.78;5022090;28;45281;-64
2021/12/20 07:06:45;;;;;;;;;28.00;23.25;;;;;7.94;68.98;102394.00;5026975;28;45236;-62
2021/12/20 07:09:11;;;;;;;;;19.75;19.00;;;;;7.90;68.88;102390.59;5022085;28;45264;-59
2021/12/20 07:11:37;;;;;;;;;27.75;20.75;;;;;7.87;68.55;102402.91;5022516;28;45222;-63
2021/12/20 07:14:02;;;;;;;;;27.00;20.50;;;;;7.83;68.62;102386.38;5022500;28;45436;-61
2021/12/20 07:16:32;;;;;;;;;18.00;16.00;;;;;7.80;68.29;102391.66;5022800;28;45478;-60
2021/12/20 07:18:58;;;;;;;;;19.00;17.00;;;;;7.78;68.31;102396.94;5025674;28;45284;-63
2021/12/20 07:21:24;;;;;;;;;20.25;15.75;;;;;7.76;68.46;102385.63;5031545;28;45380;-62
2021/12/20 07:23:49;;;;;;;;;14.75;12.25;;;;;7.74;68.45;102383.91;5020267;28;45397;-67
2021/12/20 07:26:15;;;;;;;;;21.00;14.75;;;;;7.73;68.47;102390.06;5019586;28;45272;-65
2021/12/20 07:28:42;;;;;;;;;16.75;15.00;;;;;7.74;68.36;102387.44;5017988;28;45525;-63
2021/12/20 07:31:11;;;;;;;;;17.50;13.00;;;;;7.73;68.55;102393.56;5022214;28;45635;-65
2021/12/20 07:33:37;;;;;;;;;21.25;15.50;;;;;7.75;68.23;102390.91;5021917;28;45356;-62
2021/12/20 07:36:04;;;;;;;;;16.50;15.75;;;;;7.76;68.14;102392.66;5021984;28;45321;-65
2021/12/20 07:38:29;;;;;;;;;26.00;17.00;;;;;7.75;68.12;102401.41;5021852;28;45374;-59
2021/12/20 07:40:55;;;;;;;;;22.00;19.75;;;;;7.74;68.10;102392.69;5019410;28;45301;-60
2021/12/20 07:43:21;;;;;;;;;20.75;13.75;;;;;7.75;67.93;102399.66;5020494;28;45503;-63
2021/12/20 07:45:48;;;;;;;;;21.50;13.75;;;;;7.75;67.97;102399.66;5021582;28;45931;-63
2021/12/20 07:48:18;;;;;;;;;20.25;16.00;;;;;7.76;67.84;102396.13;5021915;28;45459;-63
2021/12/20 07:50:45;;;;;;;;;20.75;14.75;;;;;7.79;68.11;102397.81;5021700;28;45273;-62
2021/12/20 07:53:10;;;;;;;;;22.00;15.00;;;;;7.79;67.40;102390.81;5022138;28;45261;-64
2021/12/20 07:55:36;;;;;;;;;30.00;21.50;;;;;7.78;67.67;102398.72;5014981;28;45159;-63
2021/12/20 07:58:02;;;;;;;;;17.00;15.00;;;;;7.79;67.78;102397.81;5021505;28;45154;-63
2021/12/20 08:00:28;;;;;;;;;17.25;15.00;;;;;7.78;67.93;102398.72;5021998;28;45438;-63
2021/12/20 08:02:56;;;;;;;;;26.25;19.50;;;;;7.76;67.92;102393.50;5021711;28;45363;-62
2021/12/20 08:05:21;;;;;;;;;20.00;16.25;;;;;7.78;67.96;102391.72;5019550;28;45677;-63
2021/12/20 08:07:50;;;;;;;;;25.75;19.00;;;;;7.78;67.83;102394.31;5019390;28;45402;-63
2021/12/20 08:10:19;;;;;;;;;21.00;16.75;;;;;7.76;67.85;102392.66;5019185;28;45375;-62
2021/12/20 08:12:46;;;;;;;;;21.75;19.50;;;;;7.73;67.94;102397.94;5000985;28;45582;-63
2021/12/20 08:15:12;;;;;;;;;28.50;20.75;;;;;7.67;67.94;102396.31;4999978;28;46094;-62
2021/12/20 08:17:38;;;;;;;;;20.25;16.25;;;;;7.64;68.38;102391.13;4998476;28;45376;-63
2021/12/20 08:20:04;;;;;;;;;22.00;17.00;;;;;7.65;68.20;102398.09;5001151;28;45364;-63
2021/12/20 08:22:30;;;;;;;;;22.75;19.50;;;;;7.68;68.31;102402.44;5001769;28;45217;-62
2021/12/20 08:24:55;;;;;;;;;30.25;15.25;;;;;7.70;68.21;102401.50;5001055;28;46658;-65
2021/12/20 08:27:21;;;;;;;;;28.25;21.00;;;;;7.73;68.34;102403.19;5001482;28;45293;-63
2021/12/20 08:29:46;;;;;;;;;25.50;20.00;;;;;7.76;68.34;102411.88;5001845;28;45289;-64
2021/12/20 08:32:12;;;;;;;;;39.50;32.00;;;;;7.74;68.02;102415.41;5001446;28;45562;-65
2021/12/20 08:34:37;;;;;;;;;29.75;24.75;;;;;7.75;67.81;102409.28;5001803;28;45911;-64
2021/12/20 08:37:03;;;;;;;;;25.75;21.75;;;;;7.75;67.97;102418.00;5001325;28;45287;-64
2021/12/20 08:39:30;;;;;;;;;27.25;20.00;;;;;7.74;67.83;102424.16;5001825;28;45355;-64
2021/12/20 08:41:56;;;;;;;;;26.75;21.25;;;;;7.76;67.82;102426.75;5001291;28;45504;-64
2021/12/20 08:44:23;;;;;;;;;23.25;18.75;;;;;7.76;67.60;102426.75;5001379;28;46452;-64
2021/12/20 08:46:49;;;;;;;;;28.75;20.25;;;;;7.73;67.46;102417.16;5001039;28;45392;-64
2021/12/20 08:49:14;;;;;;;;;30.00;22.75;;;;;7.74;67.44;102426.78;5001394;28;45564;-65
2021/12/20 08:51:40;;;;;;;;;30.75;22.00;;;;;7.74;67.53;102423.25;5001127;28;45159;-64
2021/12/20 08:54:06;;;;;;;;;28.50;21.00;;;;;7.75;67.88;102430.28;5000912;28;45245;-63
2021/12/20 08:56:32;;;;;;;;;29.00;21.50;;;;;7.76;67.62;102430.22;5014442;28;45229;-64
2021/12/20 08:58:57;;;;;;;;;35.25;19.00;;;;;7.78;67.38;102430.19;5007242;28;45749;-63
2021/12/20 09:01:23;;;;;;;;;31.25;21.25;;;;;7.81;67.34;102424.88;5020829;28;45360;-63
2021/12/20 09:03:48;;;;;;;;;30.75;21.25;;;;;7.82;67.17;102434.50;5020264;28;45387;-64
2021/12/20 09:06:14;;;;;;;;;21.25;19.75;;;;;7.82;67.26;102440.59;5020675;28;45391;-64
2021/12/20 09:08:41;;;;;;;;;28.75;20.50;;;;;7.80;67.10;102426.63;5011547;28;46110;-64
2021/12/20 09:11:07;;;;;;;;;26.50;18.50;;;;;7.81;67.21;102436.22;5017816;28;45575;-63
2021/12/20 09:13:33;;;;;;;;;31.25;22.50;;;;;7.83;67.09;102444.97;5013714;28;45488;-63
2021/12/20 09:15:59;;;;;;;;;26.00;20.50;;;;;7.83;67.18;102438.84;5015408;28;45424;-63
2021/12/20 09:18:29;;;;;;;;;23.00;18.00;;;;;7.83;67.20;102433.59;5015938;28;45208;-63
2021/12/20 09:20:57;;;;;;;;;25.75;20.50;;;;;7.89;67.16;102437.84;5009260;28;45647;-63
2021/12/20 09:23:26;;;;;;;;;28.00;22.25;;;;;7.91;67.08;102431.69;5006377;28;45703;-63
2021/12/20 09:25:51;;;;;;;;;32.50;21.00;;;;;7.93;67.02;102431.63;5012440;28;45344;-63
2021/12/20 09:28:17;;;;;;;;;22.50;18.25;;;;;7.92;66.86;102438.66;5000845;28;45308;-62
2021/12/20 09:30:46;;;;;;;;;22.00;20.75;;;;;7.95;66.63;102430.69;5007406;28;45466;-63
2021/12/20 09:33:12;;;;;;;;;26.00;17.50;;;;;7.94;66.58;102430.75;5019968;28;46047;-62
2021/12/20 09:35:38;;;;;;;;;23.25;15.75;;;;;7.89;66.63;102436.06;5027259;28;45312;-63
2021/12/20 09:38:08;;;;;;;;;21.50;17.50;;;;;7.92;66.17;102432.53;5008006;28;45391;-67
2021/12/20 09:40:40;;;;;;;;;20.25;15.25;;;;;7.94;66.22;102443.84;4999937;28;45388;-64
2021/12/20 09:43:12;;;;;;;;;27.00;21.50;;;;;7.92;66.35;102441.28;5000240;28;45318;-62
2021/12/20 09:45:40;;;;;;;;;21.00;15.50;;;;;7.96;66.76;102439.44;5014424;28;45372;-62
2021/12/20 09:48:06;;;;;;;;;25.00;18.25;;;;;7.99;66.53;102440.25;5000174;28;45424;-62
2021/12/20 09:50:32;;;;;;;;;20.00;15.25;;;;;8.03;65.77;102448.91;5000743;28;45221;-61
2021/12/20 09:53:03;;;;;;;;;24.25;19.50;;;;;8.06;66.26;102446.25;5000323;28;45399;-62
2021/12/20 09:55:30;;;;;;;;;22.50;16.75;;;;;8.09;66.11;102447.03;5005341;28;45464;-62
2021/12/20 09:57:57;;;;;;;;;29.50;23.50;;;;;8.07;65.93;102445.34;5019438;28;45183;-62
2021/12/20 10:00:23;;;;;;;;;23.25;21.00;;;;;8.06;65.92;102448.88;5019795;28;45566;-62
2021/12/20 10:02:50;;;;;;;;;25.50;18.50;;;;;8.03;65.72;102444.53;5002708;28;45400;-62
2021/12/20 10:05:17;;;;;;;;;16.00;14.75;;;;;8.03;65.68;102448.91;5000002;28;45382;-62
2021/12/20 10:07:48;;;;;;;;;23.50;20.00;;;;;8.04;65.79;102446.25;5003252;28;45260;-62
2021/12/20 10:10:13;;;;;;;;;26.00;20.50;;;;;8.06;65.65;102444.47;5019515;28;45320;-61
2021/12/20 10:12:49;;;;;;;;;22.25;17.50;;;;;8.07;65.54;102443.56;5014861;28;45888;-62
2021/12/20 10:15:15;;;;;;;;;24.50;21.25;;;;;8.07;65.63;102440.09;5019718;28;45293;-62
2021/12/20 10:17:51;;;;;;;;;24.25;20.75;;;;;8.10;65.69;102442.63;5011421;28;45788;-61
2021/12/20 10:20:22;;;;;;;;;17.25;13.25;;;;;8.08;65.18;102449.69;5016436;28;45629;-61
2021/12/20 10:22:48;;;;;;;;;22.50;21.25;;;;;8.08;65.68;102447.91;5018390;28;45650;-61
2021/12/20 10:25:28;;;;;;;;;19.75;17.00;;;;;8.11;65.36;102449.59;5017336;28;45856;-61
2021/12/20 10:28:14;;;;;;;;;21.00;17.50;;;;;8.08;65.29;102450.53;5019019;28;45486;-61
2021/12/20 10:30:50;;;;;;;;;26.50;20.25;;;;;8.09;65.39;102443.53;5019850;28;46434;-62
2021/12/20 10:33:21;;;;;;;;;22.25;17.75;;;;;8.12;65.24;102449.56;5019159;28;46201;-62
2021/12/20 10:35:52;;;;;;;;;24.50;16.25;;;;;8.13;65.38;102445.19;5019224;28;45322;-62
2021/12/20 10:38:18;;;;;;;;;17.00;15.75;;;;;8.15;65.43;102450.41;5017470;28;45544;-62
2021/12/20 10:40:52;;;;;;;;;11.75;10.50;;;;;8.14;64.67;102446.94;5019057;28;45429;-62
2021/12/20 10:43:28;;;;;;;;;10.00;8.00;;;;;8.13;64.70;102435.53;5021073;28;45876;-61
2021/12/20 10:45:56;;;;;;;;;11.00;8.50;;;;;8.13;64.68;102432.06;5022648;28;45312;-62
2021/12/20 10:48:29;;;;;;;;;11.00;10.50;;;;;8.17;64.06;102432.88;5022544;28;45240;-61
2021/12/20 10:50:55;;;;;;;;;11.50;10.00;;;;;8.09;64.40;102436.53;5022666;28;45391;-61
2021/12/20 10:53:25;;;;;;;;;14.75;9.50;;;;;8.10;64.46;102433.00;5022787;28;46133;-62
2021/12/20 10:55:54;;;;;;;;;7.00;6.50;;;;;8.17;64.20;102425.00;5022168;28;45333;-61
2021/12/20 10:58:35;;;;;;;;;11.25;7.50;;;;;8.20;63.82;102422.28;5023016;28;45385;-62
2021/12/20 11:01:48;;;;;;;;;8.00;7.00;;;;;8.24;63.89;102422.19;5023311;28;45407;-62
2021/12/20 11:04:08;;;;;;;;;12.25;11.50;;;;;8.25;63.31;102426.53;5022295;28;45779;-62
2021/12/20 11:09:21;;;;;;;;;10.00;10.00;;;;;8.24;63.69;102432.69;5022997;28;46620;-61
2021/12/20 11:11:51;;;;;;;;;16.50;12.50;;;;;8.23;63.39;102427.50;5022603;28;45548;-62
2021/12/20 11:14:19;;;;;;;;;11.75;11.75;;;;;8.27;63.35;102406.38;5022392;28;46058;-62
2021/12/20 11:16:57;;;;;;;;;15.75;12.00;;;;;8.34;63.63;102410.56;5022499;28;45458;-62
2021/12/20 11:19:25;;;;;;;;;15.50;11.75;;;;;8.36;63.32;102414.06;5022918;28;45320;-61
2021/12/20 11:22:14;;;;;;;;;16.50;13.75;;;;;8.36;63.48;102413.19;5022368;28;45613;-61
2021/12/20 11:24:51;;;;;;;;;16.00;15.00;;;;;8.36;63.42;102416.69;5022534;28;45289;-62
2021/12/20 11:27:32;;;;;;;;;17.75;16.25;;;;;8.35;63.09;102406.22;5022459;28;45324;-62
2021/12/20 11:29:59;;;;;;;;;19.25;14.00;;;;;8.33;63.02;102402.75;5022614;28;45297;-61